createdAt,value
2019-04-29T00:02:34.512Z,69.73
2019-04-29T00:07:36.978Z,70.05
2019-04-29T00:12:39.442Z,69.71
2019-04-29T00:17:51.009Z,70.19
2019-04-29T00:22:53.464Z,69.85
2019-04-29T00:27:55.931Z,69.84
2019-04-29T00:32:58.370Z,70.36
2019-04-29T00:38:03.665Z,69.93
2019-04-29T00:43:06.108Z,69.89
2019-04-29T00:48:08.573Z,70.24
2019-04-29T00:53:11.050Z,70.59
2019-04-29T00:58:13.506Z,70.36
2019-04-29T01:03:16.024Z,70.28
2019-04-29T01:08:18.467Z,69.97
2019-04-29T01:13:20.919Z,70.05
2019-04-29T01:18:23.381Z,70.42
2019-04-29T01:23:25.837Z,70.44
2019-04-29T01:28:31.334Z,70.37
2019-04-29T01:33:33.803Z,70.49
2019-04-29T01:38:36.276Z,70.37
2019-04-29T01:43:41.656Z,70.43
2019-04-29T01:48:44.116Z,70.43
2019-04-29T01:53:46.575Z,70.28
2019-04-29T01:58:49.034Z,70.30
2019-04-29T02:03:51.484Z,70.14
2019-04-29T02:08:53.931Z,70.31
2019-04-29T02:13:56.416Z,70.08
2019-04-29T02:18:58.862Z,70.15
2019-04-29T02:24:01.322Z,69.89
2019-04-29T02:29:04.673Z,69.81
2019-04-29T02:34:07.131Z,69.45
2019-04-29T02:39:15.396Z,69.12
2019-04-29T02:44:17.992Z,69.17
2019-04-29T02:49:20.449Z,68.96
2019-04-29T02:54:22.993Z,68.89
2019-04-29T02:59:37.281Z,69.49
2019-04-29T03:04:48.709Z,69.40
2019-04-29T03:09:51.159Z,69.34
2019-04-29T03:14:53.605Z,69.33
2019-04-29T03:20:14.621Z,70.13
2019-04-29T03:25:17.087Z,70.45
2019-04-29T03:30:19.625Z,70.64
2019-04-29T03:35:22.049Z,70.97
2019-04-29T03:40:24.614Z,71.80
2019-04-29T03:45:26.960Z,71.68
2019-04-29T03:50:29.450Z,71.65
2019-04-29T03:55:40.128Z,71.41
2019-04-29T04:00:35.044Z,71.01
2019-04-29T04:05:37.512Z,71.06
2019-04-29T04:10:39.968Z,71.74
2019-04-29T04:15:42.432Z,72.06
2019-04-29T04:20:44.913Z,71.42
2019-04-29T04:25:47.355Z,71.56
2019-04-29T04:30:49.830Z,71.47
2019-04-29T04:35:52.294Z,71.59
2019-04-29T04:40:54.772Z,71.71
2019-04-29T04:45:57.225Z,71.60
2019-04-29T04:50:59.689Z,71.00
2019-04-29T04:56:02.146Z,71.18
2019-04-29T05:01:04.612Z,71.22
2019-04-29T05:06:07.069Z,71.47
2019-04-29T05:11:09.532Z,71.05
2019-04-29T05:16:11.984Z,70.97
2019-04-29T05:21:14.577Z,70.63
2019-04-29T05:26:17.071Z,70.24
2019-04-29T05:31:19.539Z,69.60
2019-04-29T05:36:25.101Z,68.72
2019-04-29T05:41:30.187Z,67.40
2019-04-29T05:46:30.012Z,66.38
2019-04-29T05:51:32.470Z,65.58
2019-04-29T05:56:34.987Z,64.95
2019-04-29T06:01:37.473Z,63.87
2019-04-29T06:06:39.920Z,63.38
2019-04-29T06:11:42.381Z,62.91
2019-04-29T06:16:44.943Z,62.55
2019-04-29T06:21:47.458Z,61.73
2019-04-29T06:26:49.918Z,61.33
2019-04-29T06:31:52.374Z,61.38
2019-04-29T06:36:54.843Z,60.86
2019-04-29T06:41:57.346Z,60.50
2019-04-29T06:46:59.809Z,60.34
2019-04-29T06:52:02.288Z,59.96
2019-04-29T06:57:04.753Z,59.72
2019-04-29T07:02:09.500Z,59.89
2019-04-29T07:07:09.699Z,59.19
2019-04-29T07:12:13.814Z,58.98
2019-04-29T07:17:14.632Z,57.95
2019-04-29T07:22:20.801Z,57.51
2019-04-29T07:27:19.620Z,56.67
2019-04-29T07:32:22.086Z,55.48
2019-04-29T07:37:24.574Z,55.76
2019-04-29T07:42:32.262Z,54.52
2019-04-29T07:47:31.086Z,54.05
2019-04-29T07:52:32.062Z,54.62
2019-04-29T07:57:34.585Z,54.49
2019-04-29T08:02:37.043Z,52.69
2019-04-29T08:07:39.512Z,49.83
2019-04-29T08:12:41.982Z,46.53
2019-04-29T08:17:44.498Z,44.05
2019-04-29T08:22:46.893Z,41.51
2019-04-29T08:27:49.347Z,39.04
2019-04-29T08:32:51.800Z,37.17
2019-04-29T08:37:54.287Z,33.65
2019-04-29T08:42:56.745Z,32.03
2019-04-29T08:47:59.274Z,30.87
2019-04-29T08:53:01.759Z,30.95
2019-04-29T08:58:06.941Z,30.27
2019-04-29T09:03:06.683Z,29.56
2019-04-29T09:08:09.180Z,28.72
2019-04-29T09:13:11.597Z,28.86
2019-04-29T09:18:14.086Z,29.00
2019-04-29T09:23:16.556Z,29.75
2019-04-29T09:28:26.995Z,30.01
2019-04-29T09:33:21.635Z,28.06
2019-04-29T09:38:24.109Z,26.04
2019-04-29T09:43:41.924Z,27.85
2019-04-29T09:48:44.392Z,28.80
2019-04-29T09:53:46.867Z,31.73
2019-04-29T09:58:49.332Z,31.90
2019-04-29T10:04:00.857Z,33.16
2019-04-29T10:09:03.333Z,34.17
2019-04-29T10:14:05.811Z,35.58
2019-04-29T10:19:08.269Z,36.21
2019-04-29T10:24:10.743Z,38.12
2019-04-29T10:29:13.772Z,37.97
2019-04-29T10:34:15.697Z,37.20
2019-04-29T10:39:24.392Z,36.79
2019-04-29T10:44:26.805Z,37.97
2019-04-29T10:49:29.334Z,36.76
2019-04-29T10:54:31.792Z,34.78
2019-04-29T10:59:35.905Z,34.06
2019-04-29T11:04:38.105Z,32.65
2019-04-29T11:09:39.216Z,31.97
2019-04-29T11:14:41.675Z,28.23
2019-04-29T11:19:44.149Z,31.06
2019-04-29T11:25:04.958Z,29.14
2019-04-29T11:30:07.420Z,28.73
2019-04-29T11:35:09.884Z,29.25
2019-04-29T11:40:12.367Z,30.13
2019-04-29T11:45:14.847Z,31.27
2019-04-29T11:50:20.076Z,32.20
2019-04-29T11:55:22.564Z,32.18
2019-04-29T12:00:34.255Z,31.48
2019-04-29T12:05:40.260Z,34.17
2019-04-29T12:10:46.872Z,34.24
2019-04-29T12:15:50.929Z,33.58
2019-04-29T12:20:53.418Z,33.83
2019-04-29T12:25:58.655Z,33.04
2019-04-29T12:30:58.356Z,32.04
2019-04-29T12:36:11.001Z,31.60
2019-04-29T12:41:20.957Z,32.12
2019-04-29T12:46:21.700Z,32.01
2019-04-29T12:51:24.199Z,32.33
2019-04-29T12:56:32.784Z,31.35
2019-04-29T13:01:50.809Z,31.94
2019-04-29T13:06:39.421Z,31.29
2019-04-29T13:11:48.173Z,30.84
2019-04-29T13:16:45.680Z,31.56
2019-04-29T13:21:48.152Z,31.45
2019-04-29T13:26:50.612Z,32.43
2019-04-29T13:31:53.113Z,32.56
2019-04-29T13:37:06.529Z,32.22
2019-04-29T13:42:02.600Z,32.40
2019-04-29T13:47:00.527Z,33.87
2019-04-29T13:52:02.991Z,34.44
2019-04-29T13:57:08.912Z,33.93
2019-04-29T14:02:22.155Z,34.35
2019-04-29T14:07:22.468Z,34.94
2019-04-29T14:12:47.936Z,34.92
2019-04-29T14:17:31.795Z,36.67
2019-04-29T14:22:29.983Z,37.75
2019-04-29T14:27:32.443Z,38.05
2019-04-29T14:32:38.155Z,37.23
2019-04-29T14:37:37.416Z,37.45
2019-04-29T14:42:57.601Z,37.06
2019-04-29T14:47:51.364Z,37.71
2019-04-29T14:52:53.838Z,38.71
2019-04-29T14:57:56.302Z,40.33
2019-04-29T15:03:00.857Z,40.98
2019-04-29T15:08:01.257Z,43.10
2019-04-29T15:13:21.458Z,44.91
2019-04-29T15:18:46.131Z,46.24
2019-04-29T15:23:33.078Z,46.60
2019-04-29T15:28:35.441Z,47.38
2019-04-29T15:33:37.910Z,48.64
2019-04-29T15:38:40.380Z,49.57
2019-04-29T15:43:47.769Z,51.32
2019-04-29T15:48:45.353Z,52.67
2019-04-29T15:53:47.818Z,53.66
2019-04-29T15:58:50.525Z,55.26
2019-04-29T16:03:54.605Z,56.21
2019-04-29T16:08:58.930Z,57.25
2019-04-29T16:14:08.686Z,59.02
2019-04-29T16:19:07.133Z,59.58
2019-04-29T16:24:24.358Z,60.84
2019-04-29T16:29:12.343Z,61.07
2019-04-29T16:34:07.739Z,62.08
2019-04-29T16:39:10.216Z,62.37
2019-04-29T16:44:34.106Z,63.23
2019-04-29T16:49:15.125Z,63.36
2019-04-29T16:54:20.598Z,63.87
2019-04-29T16:59:20.149Z,64.40
2019-04-29T17:04:22.610Z,64.82
2019-04-29T17:09:40.171Z,65.14
2019-04-29T17:15:03.076Z,65.09
2019-04-29T17:19:45.131Z,65.39
2019-04-29T17:24:47.739Z,66.12
2019-04-29T17:30:08.331Z,66.66
2019-04-29T17:35:11.006Z,66.83
2019-04-29T17:40:13.270Z,67.10
2019-04-29T17:45:27.018Z,67.39
2019-04-29T17:50:31.359Z,68.00
2019-04-29T17:55:45.463Z,68.21
2019-04-29T18:00:56.290Z,68.54
2019-04-29T18:05:57.102Z,68.71
2019-04-29T18:10:55.886Z,69.03
2019-04-29T18:16:03.355Z,69.43
2019-04-29T18:21:06.834Z,69.40
2019-04-29T18:26:09.189Z,70.15
2019-04-29T18:31:11.677Z,70.22
2019-04-29T18:36:21.832Z,70.72
2019-04-29T18:41:24.825Z,71.04
2019-04-29T18:46:19.101Z,70.85
2019-04-29T18:51:25.681Z,71.11
2019-04-29T18:56:25.973Z,71.48
2019-04-29T19:01:28.850Z,71.55
2019-04-29T19:06:29.069Z,71.64
2019-04-29T19:11:32.765Z,72.19
2019-04-29T19:16:35.888Z,72.37
2019-04-29T19:21:36.468Z,72.51
2019-04-29T19:26:38.937Z,72.85
2019-04-29T19:31:46.633Z,73.16
2019-04-29T19:36:45.173Z,73.49
2019-04-29T19:41:50.407Z,73.71
2019-04-29T19:46:48.823Z,73.89
2019-04-29T19:51:51.312Z,74.11
2019-04-29T19:57:02.918Z,74.49
2019-04-29T20:02:04.618Z,74.28
2019-04-29T20:07:05.783Z,74.62
2019-04-29T20:12:11.405Z,74.65
2019-04-29T20:17:12.679Z,74.90
2019-04-29T20:22:09.831Z,75.02
2019-04-29T20:27:11.908Z,74.97
2019-04-29T20:32:16.582Z,74.91
2019-04-29T20:37:19.784Z,75.16
2019-04-29T20:42:19.576Z,75.22
2019-04-29T20:47:23.581Z,74.96
2019-04-29T20:52:27.161Z,75.28
2019-04-29T20:57:29.656Z,75.12
2019-04-29T21:02:35.330Z,75.30
2019-04-29T21:07:34.568Z,75.58
2019-04-29T21:12:39.979Z,75.68
2019-04-29T21:17:42.438Z,75.71
2019-04-29T21:22:45.564Z,75.53
2019-04-29T21:27:48.547Z,76.07
2019-04-29T21:32:49.893Z,75.96
2019-04-29T21:38:10.508Z,76.02
2019-04-29T21:43:13.955Z,76.19
2019-04-29T21:48:15.459Z,76.26
2019-04-29T21:53:17.925Z,76.18
2019-04-29T21:58:20.410Z,76.25
2019-04-29T22:03:26.521Z,76.62
2019-04-29T22:08:29.806Z,76.27
2019-04-29T22:13:30.689Z,76.72
2019-04-29T22:18:30.324Z,76.76
2019-04-29T22:23:32.782Z,76.72
2019-04-29T22:28:35.306Z,76.93
2019-04-29T22:33:38.669Z,76.84
2019-04-29T22:38:43.671Z,76.90
2019-04-29T22:43:45.832Z,77.12
2019-04-29T22:48:48.742Z,77.09
2019-04-29T22:53:50.597Z,77.54
2019-04-29T22:58:53.080Z,77.42
2019-04-29T23:03:55.576Z,77.33
2019-04-29T23:08:58.010Z,78.30
2019-04-29T23:14:01.675Z,78.90
2019-04-29T23:19:05.004Z,78.63
2019-04-29T23:24:07.091Z,78.23
2019-04-29T23:29:07.877Z,78.19
2019-04-29T23:34:10.342Z,78.41
2019-04-29T23:39:12.803Z,78.03
2019-04-29T23:44:15.267Z,78.67
2019-04-29T23:49:17.724Z,78.32
2019-04-29T23:54:20.258Z,78.41
2019-04-29T23:59:25.541Z,78.22
